Saratoga-Weather Station Historical Data
Daily Summary for July 4, 2022 Units:  Metric    English   Both
Daily Weekly Monthly Yearly
  High: Low: Average:
Temperature: 23.6 °C 15.2 °C 18 °C
Dew Point: 18.4 °C 13.7 °C 15.6 °C
Humidity: 92% 71% 86%
Wind Speed: 4.8km/h 0km/h 1.6km/h
Wind Gust: 12.9km/h - -
Wind- - South
Pressure: 1019.9 hPa 1017.1 hPa -
Precipitation: 0.0 mm    
 
 
Tabular Data for July 4, 2022
Time Temperature Dew Point Pressure Wind Wind Speed Wind Gust Humidity Rainfall Rate (Hourly) solar
00:00 16.9 °C 15.1 °C 1018.6 hPa Calm   3.2 km/h 89% 0.0 mm 0 W/m2
00:05 16.9 °C 15.1 °C 1018.7 hPa Calm   3.2 km/h 89% 0.0 mm 0 W/m2
00:10 16.5 °C 14.7 °C 1018.7 hPa Calm   1.6 km/h 89% 0.0 mm 0 W/m2
00:15 16.6 °C 14.9 °C 1018.7 hPa Calm     90% 0.0 mm 0 W/m2
00:20 16.4 °C 14.6 °C 1018.6 hPa Calm     89% 0.0 mm 0 W/m2
00:25 16.3 °C 14.5 °C 1018.6 hPa Calm     89% 0.0 mm 0 W/m2
00:30 16.3 °C 14.6 °C 1018.6 hPa Calm     90% 0.0 mm 0 W/m2
00:35 16.1 °C 14.4 °C 1018.6 hPa Calm     90% 0.0 mm 0 W/m2
00:40 16.2 °C 14.6 °C 1018.6 hPa Calm     90% 0.0 mm 0 W/m2
00:45 16.1 °C 14.4 °C 1018.6 hPa Calm   1.6 km/h 90% 0.0 mm 0 W/m2
00:50 16 °C 14.3 °C 1018.6 hPa Calm   1.6 km/h 90% 0.0 mm 0 W/m2
00:55 16.1 °C 14.4 °C 1018.6 hPa Calm     90% 0.0 mm 0 W/m2
01:00 16 °C 14.3 °C 1018.5 hPa Calm     90% 0.0 mm 0 W/m2
01:05 16.1 °C 14.4 °C 1018.5 hPa Calm     90% 0.0 mm 0 W/m2
01:10 16.3 °C 14.6 °C 1018.5 hPa Calm     90% 0.0 mm 0 W/m2
01:15 16.3 °C 14.7 °C 1018.5 hPa Calm     90% 0.0 mm 0 W/m2
01:20 16.4 °C 14.8 °C 1018.6 hPa Calm     90% 0.0 mm 0 W/m2
01:25 16.5 °C 14.8 °C 1018.6 hPa Calm     90% 0.0 mm 0 W/m2
01:30 16.4 °C 14.7 °C 1018.6 hPa Calm     90% 0.0 mm 0 W/m2
01:35 16.3 °C 14.7 °C 1018.6 hPa Calm     90% 0.0 mm 0 W/m2
01:40 16.3 °C 14.6 °C 1018.6 hPa Calm     90% 0.0 mm 0 W/m2
01:45 16.3 °C 14.7 °C 1018.5 hPa Calm     90% 0.0 mm 0 W/m2
01:50 16.2 °C 14.6 °C 1018.5 hPa Calm     90% 0.0 mm 0 W/m2
01:55 16.3 °C 14.6 °C 1018.5 hPa Calm     90% 0.0 mm 0 W/m2
02:00 16.3 °C 14.7 °C 1018.5 hPa Calm     90% 0.0 mm 0 W/m2
02:05 16.3 °C 14.7 °C 1018.5 hPa Calm     90% 0.0 mm 0 W/m2
02:10 16.2 °C 14.6 °C 1018.5 hPa Calm     90% 0.0 mm 0 W/m2
02:15 16.1 °C 14.4 °C 1018.5 hPa Calm   3.2 km/h 90% 0.0 mm 0 W/m2
02:20 16 °C 14.3 °C 1018.5 hPa North 1.6 km/h 3.2 km/h 90% 0.0 mm 0 W/m2
02:25 16.2 °C 14.5 °C 1018.4 hPa North 1.6 km/h 3.2 km/h 90% 0.0 mm 0 W/m2
02:30 16.2 °C 14.6 °C 1018.4 hPa NE 1.6 km/h 3.2 km/h 90% 0.0 mm 0 W/m2
02:35 16.1 °C 14.4 °C 1018.4 hPa ESE 1.6 km/h 3.2 km/h 90% 0.0 mm 0 W/m2
02:40 16 °C 14.3 °C 1018.3 hPa Calm   3.2 km/h 90% 0.0 mm 0 W/m2
02:45 15.8 °C 14.4 °C 1018.3 hPa Calm   3.2 km/h 91% 0.0 mm 0 W/m2
02:50 15.7 °C 14.1 °C 1018.3 hPa Calm   3.2 km/h 90% 0.0 mm 0 W/m2
02:55 15.6 °C 14.1 °C 1018.2 hPa Calm     91% 0.0 mm 0 W/m2
03:00 15.5 °C 14.1 °C 1018.3 hPa Calm     91% 0.0 mm 0 W/m2
03:05 15.4 °C 14 °C 1018.2 hPa Calm     91% 0.0 mm 0 W/m2
03:10 15.4 °C 13.9 °C 1018.3 hPa Calm     91% 0.0 mm 0 W/m2
03:15 15.3 °C 13.9 °C 1018.2 hPa Calm     91% 0.0 mm 0 W/m2
03:20 15.4 °C 13.9 °C 1018.3 hPa Calm     91% 0.0 mm 0 W/m2
03:25 15.4 °C 13.9 °C 1018.2 hPa Calm     91% 0.0 mm 0 W/m2
03:30 15.2 °C 13.8 °C 1018.2 hPa Calm     91% 0.0 mm 0 W/m2
03:35 15.3 °C 13.9 °C 1018.2 hPa Calm     91% 0.0 mm 0 W/m2
03:40 15.4 °C 14 °C 1018.1 hPa Calm     91% 0.0 mm 0 W/m2
03:45 15.5 °C 14.1 °C 1018.0 hPa Calm     91% 0.0 mm 0 W/m2
03:50 15.4 °C 13.9 °C 1018.0 hPa Calm     91% 0.0 mm 0 W/m2
03:55 15.3 °C 13.9 °C 1017.9 hPa Calm     91% 0.0 mm 0 W/m2
04:00 15.3 °C 13.9 °C 1017.9 hPa Calm     91% 0.0 mm 0 W/m2
04:05 15.3 °C 13.9 °C 1017.7 hPa Calm     91% 0.0 mm 0 W/m2
04:10 15.3 °C 13.9 °C 1017.6 hPa Calm     91% 0.0 mm 0 W/m2
04:15 15.3 °C 13.8 °C 1017.6 hPa Calm     91% 0.0 mm 0 W/m2
04:20 15.7 °C 14.4 °C 1017.6 hPa Calm     92% 0.0 mm 0 W/m2
04:25 15.9 °C 14.7 °C 1017.5 hPa Calm   4.8 km/h 92% 0.0 mm 0 W/m2
04:30 16.2 °C 14.9 °C 1017.5 hPa West 1.6 km/h 4.8 km/h 92% 0.0 mm 0 W/m2
04:35 16.2 °C 14.9 °C 1017.4 hPa West 3.2 km/h 6.4 km/h 92% 0.0 mm 0 W/m2
04:40 16.3 °C 14.8 °C 1017.3 hPa WSW 3.2 km/h 9.7 km/h 91% 0.0 mm 0 W/m2
04:45 16.3 °C 14.8 °C 1017.3 hPa West 3.2 km/h 9.7 km/h 91% 0.0 mm 0 W/m2
04:50 16.2 °C 14.7 °C 1017.3 hPa West 3.2 km/h 11.3 km/h 91% 0.0 mm 0 W/m2
04:55 16.1 °C 14.8 °C 1017.3 hPa WSW 3.2 km/h 11.3 km/h 92% 0.0 mm 0 W/m2
05:00 16.2 °C 14.7 °C 1017.3 hPa SW 1.6 km/h 4.8 km/h 91% 0.0 mm 0 W/m2
05:05 16.2 °C 14.7 °C 1017.3 hPa SW 1.6 km/h 3.2 km/h 91% 0.0 mm 0 W/m2
05:10 16.2 °C 14.8 °C 1017.2 hPa West 1.6 km/h 6.4 km/h 91% 0.0 mm 0 W/m2
05:15 16.2 °C 14.8 °C 1017.3 hPa WNW 1.6 km/h 6.4 km/h 91% 0.0 mm 0 W/m2
05:20 16.2 °C 14.7 °C 1017.2 hPa WNW 1.6 km/h 4.8 km/h 91% 0.0 mm 0 W/m2
05:25 16.2 °C 14.8 °C 1017.2 hPa West 1.6 km/h 4.8 km/h 91% 0.0 mm 0 W/m2
05:30 16.2 °C 14.7 °C 1017.2 hPa WSW 1.6 km/h 4.8 km/h 91% 0.0 mm 0 W/m2
05:35 16.2 °C 14.8 °C 1017.2 hPa WSW 1.6 km/h 3.2 km/h 91% 0.0 mm 0 W/m2
05:40 16.2 °C 14.8 °C 1017.1 hPa WSW 1.6 km/h 4.8 km/h 91% 0.0 mm 0 W/m2
05:45 16.2 °C 14.8 °C 1017.2 hPa WSW 1.6 km/h 4.8 km/h 91% 0.0 mm 0 W/m2
05:50 16.2 °C 14.8 °C 1017.2 hPa West 1.6 km/h 3.2 km/h 91% 0.0 mm 0 W/m2
05:55 16.2 °C 14.8 °C 1017.3 hPa West 1.6 km/h 4.8 km/h 91% 0.0 mm 0 W/m2
06:00 16.2 °C 14.8 °C 1017.2 hPa WNW 1.6 km/h 4.8 km/h 91% 0.0 mm 0 W/m2
06:05 16.2 °C 14.8 °C 1017.3 hPa WNW 1.6 km/h 4.8 km/h 91% 0.0 mm 0 W/m2
06:10 16.2 °C 14.7 °C 1017.3 hPa WNW 1.6 km/h 4.8 km/h 91% 0.0 mm 0 W/m2
06:15 16.2 °C 14.8 °C 1017.3 hPa WNW 1.6 km/h 8 km/h 91% 0.0 mm 0 W/m2
06:20 16.2 °C 14.8 °C 1017.2 hPa WNW 3.2 km/h 8 km/h 91% 0.0 mm 0 W/m2
06:25 16.2 °C 14.7 °C 1017.1 hPa WNW 3.2 km/h 4.8 km/h 91% 0.0 mm 0 W/m2
06:30 16.2 °C 14.7 °C 1017.1 hPa WNW 3.2 km/h 4.8 km/h 91% 0.0 mm 0 W/m2
06:35 16.2 °C 14.8 °C 1017.2 hPa West 3.2 km/h 4.8 km/h 91% 0.0 mm 0 W/m2
06:40 16.2 °C 14.7 °C 1017.2 hPa WNW 3.2 km/h 6.4 km/h 91% 0.0 mm 0 W/m2
06:45 16.2 °C 14.7 °C 1017.2 hPa WNW 3.2 km/h 11.3 km/h 91% 0.0 mm 0 W/m2
06:50 16.2 °C 14.7 °C 1017.3 hPa West 3.2 km/h 11.3 km/h 91% 0.0 mm 0 W/m2
06:55 16.2 °C 14.7 °C 1017.3 hPa West 3.2 km/h 6.4 km/h 91% 0.0 mm 0 W/m2
07:00 16.1 °C 14.6 °C 1017.3 hPa West 1.6 km/h 6.4 km/h 91% 0.0 mm 0 W/m2
07:05 16.1 °C 14.6 °C 1017.3 hPa WSW 1.6 km/h 4.8 km/h 91% 0.0 mm 0 W/m2
07:10 15.9 °C 14.5 °C 1017.3 hPa SSW 1.6 km/h 4.8 km/h 91% 0.0 mm 0 W/m2
07:15 15.9 °C 14.5 °C 1017.3 hPa SSW 1.6 km/h 4.8 km/h 91% 0.0 mm 0 W/m2
07:20 15.9 °C 14.5 °C 1017.3 hPa SSW 1.6 km/h 3.2 km/h 91% 0.0 mm 0 W/m2
07:25 15.8 °C 14.4 °C 1017.3 hPa SW 1.6 km/h 4.8 km/h 91% 0.0 mm 0 W/m2
07:30 15.8 °C 14.4 °C 1017.3 hPa WSW 1.6 km/h 6.4 km/h 91% 0.0 mm 0 W/m2
07:35 15.8 °C 14.4 °C 1017.3 hPa SW 1.6 km/h 6.4 km/h 91% 0.0 mm 0 W/m2
07:40 15.8 °C 14.3 °C 1017.3 hPa SW 1.6 km/h 8 km/h 91% 0.0 mm 0 W/m2
07:45 15.8 °C 14.3 °C 1017.3 hPa SW 3.2 km/h 8 km/h 91% 0.0 mm 0 W/m2
07:50 15.8 °C 14.3 °C 1017.3 hPa SW 3.2 km/h 6.4 km/h 91% 0.0 mm 0 W/m2
07:55 15.8 °C 14.3 °C 1017.4 hPa West 3.2 km/h 8 km/h 91% 0.0 mm 0 W/m2
08:00 15.8 °C 14.3 °C 1017.3 hPa West 3.2 km/h 8 km/h 91% 0.0 mm 0 W/m2
08:05 15.8 °C 14.3 °C 1017.4 hPa West 1.6 km/h 6.4 km/h 91% 0.0 mm 0 W/m2
08:10 15.8 °C 14.4 °C 1017.4 hPa WSW 1.6 km/h 4.8 km/h 91% 0.0 mm 0 W/m2
08:15 15.8 °C 14.3 °C 1017.5 hPa WSW 1.6 km/h 4.8 km/h 91% 0.0 mm 5 W/m2
08:20 15.8 °C 14.3 °C 1017.5 hPa West 1.6 km/h 3.2 km/h 91% 0.0 mm 9 W/m2
08:25 15.8 °C 14.3 °C 1017.5 hPa West 1.6 km/h 3.2 km/h 91% 0.0 mm 12 W/m2
08:30 15.9 °C 14.5 °C 1017.5 hPa Calm   3.2 km/h 91% 0.0 mm 14 W/m2
08:35 15.5 °C 13.9 °C 1017.7 hPa Calm   3.2 km/h 90% 0.0 mm 19 W/m2
08:40 15.3 °C 13.7 °C 1017.7 hPa Calm   1.6 km/h 90% 0.0 mm 25 W/m2
08:45 15.3 °C 13.8 °C 1017.8 hPa Calm   1.6 km/h 91% 0.0 mm 35 W/m2
08:50 15.4 °C 14 °C 1017.8 hPa Calm     91% 0.0 mm 47 W/m2
08:55 15.5 °C 14.1 °C 1017.9 hPa Calm     91% 0.0 mm 58 W/m2
09:00 15.7 °C 14.2 °C 1017.9 hPa Calm   1.6 km/h 91% 0.0 mm 72 W/m2
09:05 15.9 °C 14.4 °C 1018.0 hPa Calm   3.2 km/h 91% 0.0 mm 86 W/m2
09:10 15.8 °C 14.2 °C 1018.1 hPa SSW 1.6 km/h 4.8 km/h 90% 0.0 mm 98 W/m2
09:15 15.8 °C 14.2 °C 1018.1 hPa SSW 1.6 km/h 4.8 km/h 90% 0.0 mm 114 W/m2
09:20 15.8 °C 14.2 °C 1018.1 hPa SSW 1.6 km/h 4.8 km/h 90% 0.0 mm 130 W/m2
09:25 15.9 °C 14.3 °C 1018.1 hPa South 1.6 km/h 6.4 km/h 90% 0.0 mm 137 W/m2
09:30 16.1 °C 14.4 °C 1018.1 hPa South 1.6 km/h 6.4 km/h 90% 0.0 mm 141 W/m2
09:35 16.2 °C 14.6 °C 1018.2 hPa South 1.6 km/h 6.4 km/h 90% 0.0 mm 160 W/m2
09:40 16.3 °C 14.6 °C 1018.3 hPa SSW 1.6 km/h 4.8 km/h 90% 0.0 mm 193 W/m2
09:45 16.3 °C 14.5 °C 1018.3 hPa SSW 3.2 km/h 6.4 km/h 89% 0.0 mm 216 W/m2
09:50 16.4 °C 14.6 °C 1018.4 hPa South 1.6 km/h 8 km/h 89% 0.0 mm 232 W/m2
09:55 16.7 °C 14.8 °C 1018.4 hPa South 3.2 km/h 9.7 km/h 89% 0.0 mm 246 W/m2
10:00 16.7 °C 14.5 °C 1018.5 hPa South 3.2 km/h 9.7 km/h 87% 0.0 mm 260 W/m2
10:05 16.8 °C 14.6 °C 1018.5 hPa SSW 3.2 km/h 9.7 km/h 87% 0.0 mm 274 W/m2
10:10 17.1 °C 14.9 °C 1018.6 hPa SW 3.2 km/h 8 km/h 87% 0.0 mm 290 W/m2
10:15 17.3 °C 14.9 °C 1018.6 hPa SW 3.2 km/h 11.3 km/h 86% 0.0 mm 302 W/m2
10:20 17.4 °C 15.1 °C 1018.6 hPa SW 3.2 km/h 11.3 km/h 86% 0.0 mm 309 W/m2
10:25 17.6 °C 15.1 °C 1018.7 hPa SSW 3.2 km/h 8 km/h 85% 0.0 mm 329 W/m2
10:30 17.6 °C 15.1 °C 1018.7 hPa South 3.2 km/h 9.7 km/h 85% 0.0 mm 346 W/m2
10:35 17.8 °C 15.1 °C 1018.8 hPa South 3.2 km/h 9.7 km/h 84% 0.0 mm 362 W/m2
10:40 18 °C 15.1 °C 1018.8 hPa SSW 3.2 km/h 8 km/h 83% 0.0 mm 383 W/m2
10:45 18.2 °C 15.1 °C 1018.8 hPa SSW 3.2 km/h 8 km/h 82% 0.0 mm 406 W/m2
10:50 18.3 °C 15.2 °C 1018.8 hPa South 3.2 km/h 9.7 km/h 82% 0.0 mm 420 W/m2
10:55 18.2 °C 15.1 °C 1018.8 hPa SSE 3.2 km/h 9.7 km/h 82% 0.0 mm 436 W/m2
11:00 18.6 °C 15.2 °C 1018.9 hPa SSE 3.2 km/h 8 km/h 81% 0.0 mm 452 W/m2
11:05 18.9 °C 15.4 °C 1018.8 hPa South 1.6 km/h 6.4 km/h 80% 0.0 mm 466 W/m2
11:10 18.7 °C 14.9 °C 1018.9 hPa SSE 1.6 km/h 8 km/h 79% 0.0 mm 480 W/m2
11:15 19.1 °C 15.4 °C 1018.9 hPa SSE 1.6 km/h 8 km/h 79% 0.0 mm 494 W/m2
11:20 19.2 °C 15.3 °C 1018.9 hPa SSE 1.6 km/h 6.4 km/h 78% 0.0 mm 508 W/m2
11:25 19.8 °C 15.6 °C 1019.0 hPa SSE 1.6 km/h 6.4 km/h 77% 0.0 mm 519 W/m2
11:30 19.9 °C 15.8 °C 1019.0 hPa SSE 1.6 km/h 8 km/h 77% 0.0 mm 527 W/m2
11:35 20.1 °C 15.7 °C 1019.0 hPa SSE 1.6 km/h 8 km/h 76% 0.0 mm 540 W/m2
11:40 20.2 °C 15.7 °C 1019.1 hPa SSE 3.2 km/h 6.4 km/h 75% 0.0 mm 550 W/m2
11:45 20.1 °C 15.7 °C 1019.0 hPa SSE 3.2 km/h 8 km/h 76% 0.0 mm 561 W/m2
11:50 20.7 °C 16.1 °C 1019.0 hPa SSE 3.2 km/h 8 km/h 75% 0.0 mm 570 W/m2
11:55 20.9 °C 16.3 °C 1019.0 hPa SE 3.2 km/h 6.4 km/h 75% 0.0 mm 580 W/m2
12:00 20.8 °C 15.8 °C 1018.9 hPa SE 3.2 km/h 9.7 km/h 73% 0.0 mm 589 W/m2
12:05 21.2 °C 16.3 °C 1018.9 hPa SE 3.2 km/h 9.7 km/h 74% 0.0 mm 599 W/m2
12:10 21.6 °C 16.7 °C 1019.0 hPa ESE 1.6 km/h 6.4 km/h 74% 0.0 mm 608 W/m2
12:15 21.4 °C 16.4 °C 1018.9 hPa ESE 1.6 km/h 6.4 km/h 73% 0.0 mm 615 W/m2
12:20 21.6 °C 16.5 °C 1019.0 hPa SE 1.6 km/h 6.4 km/h 73% 0.0 mm 624 W/m2
12:25 21.3 °C 16.4 °C 1019.0 hPa SE 3.2 km/h 6.4 km/h 74% 0.0 mm 631 W/m2
12:30 21.1 °C 16.4 °C 1019.0 hPa SE 3.2 km/h 9.7 km/h 75% 0.0 mm 640 W/m2
12:35 20.9 °C 16.6 °C 1019.0 hPa SE 3.2 km/h 9.7 km/h 76% 0.0 mm 645 W/m2
12:40 21.1 °C 16.9 °C 1019.0 hPa SE 3.2 km/h 6.4 km/h 77% 0.0 mm 663 W/m2
12:45 21.4 °C 17 °C 1018.9 hPa SE 3.2 km/h 6.4 km/h 76% 0.0 mm 657 W/m2
12:50 21.7 °C 17.3 °C 1019.0 hPa SE 3.2 km/h 6.4 km/h 76% 0.0 mm 663 W/m2
12:55 22.1 °C 17.4 °C 1019.0 hPa SE 3.2 km/h 6.4 km/h 75% 0.0 mm 670 W/m2
13:00 21.9 °C 17.4 °C 1018.9 hPa SE 3.2 km/h 6.4 km/h 76% 0.0 mm 673 W/m2
13:05 21.9 °C 17.4 °C 1018.8 hPa ESE 3.2 km/h 8 km/h 76% 0.0 mm 661 W/m2
13:10 21.9 °C 17.4 °C 1018.8 hPa ESE 3.2 km/h 9.7 km/h 76% 0.0 mm 645 W/m2
13:15 22.1 °C 17.7 °C 1018.8 hPa ESE 3.2 km/h 9.7 km/h 76% 0.0 mm 621 W/m2
13:20 22.1 °C 17.4 °C 1018.8 hPa ESE 3.2 km/h 8 km/h 75% 0.0 mm 596 W/m2
13:25 22.2 °C 17.5 °C 1018.8 hPa SE 3.2 km/h 8 km/h 75% 0.0 mm 573 W/m2
13:30 22.2 °C 17.5 °C 1018.8 hPa SE 3.2 km/h 6.4 km/h 75% 0.0 mm 555 W/m2
13:35 22.4 °C 17.7 °C 1018.7 hPa SE 3.2 km/h 9.7 km/h 75% 0.0 mm 550 W/m2
13:40 22.5 °C 17.8 °C 1018.6 hPa SE 4.8 km/h 9.7 km/h 75% 0.0 mm 555 W/m2
13:45 22.4 °C 17.6 °C 1018.6 hPa SE 3.2 km/h 9.7 km/h 74% 0.0 mm 571 W/m2
13:50 22.4 °C 17.8 °C 1018.6 hPa SE 3.2 km/h 6.4 km/h 75% 0.0 mm 598 W/m2
13:55 22.7 °C 18.1 °C 1018.5 hPa SE 3.2 km/h 6.4 km/h 75% 0.0 mm 629 W/m2
14:00 22.3 °C 17.4 °C 1018.4 hPa SE 4.8 km/h 9.7 km/h 74% 0.0 mm 657 W/m2
14:05 21.9 °C 17.5 °C 1018.4 hPa SE 4.8 km/h 9.7 km/h 76% 0.0 mm 684 W/m2
14:10 21.4 °C 17.2 °C 1018.4 hPa SE 4.8 km/h 8 km/h 77% 0.0 mm 654 W/m2
14:15 21.8 °C 17.6 °C 1018.3 hPa SE 4.8 km/h 8 km/h 77% 0.0 mm 599 W/m2
14:20 21.6 °C 17.6 °C 1018.3 hPa SE 3.2 km/h 8 km/h 78% 0.0 mm 555 W/m2
14:25 22.2 °C 17.9 °C 1018.2 hPa SE 4.8 km/h 9.7 km/h 77% 0.0 mm 563 W/m2
14:30 22.9 °C 18.3 °C 1018.2 hPa SE 3.2 km/h 9.7 km/h 75% 0.0 mm 605 W/m2
14:35 23.1 °C 18.2 °C 1018.1 hPa NNE 3.2 km/h 6.4 km/h 74% 0.0 mm 661 W/m2
14:40 23.1 °C 18.2 °C 1018.1 hPa NNE 1.6 km/h 6.4 km/h 74% 0.0 mm 684 W/m2
14:45 23.6 °C 18.4 °C 1018.0 hPa NE 1.6 km/h 6.4 km/h 73% 0.0 mm 689 W/m2
14:50 23.6 °C 18.3 °C 1018.0 hPa East 1.6 km/h 4.8 km/h 72% 0.0 mm 679 W/m2
14:55 23.4 °C 17.9 °C 1018.0 hPa SSW 1.6 km/h 4.8 km/h 71% 0.0 mm 671 W/m2
15:00 22.9 °C 18.1 °C 1018.0 hPa WNW 3.2 km/h 12.9 km/h 74% 0.0 mm 670 W/m2
15:05 22.7 °C 17.6 °C 1017.9 hPa NNW 3.2 km/h 12.9 km/h 73% 0.0 mm 666 W/m2
15:10 22.6 °C 17.7 °C 1017.9 hPa North 3.2 km/h 12.9 km/h 74% 0.0 mm 659 W/m2
15:15 22.9 °C 17.8 °C 1017.8 hPa North 3.2 km/h 12.9 km/h 73% 0.0 mm 647 W/m2
15:20 23.1 °C 17.7 °C 1017.8 hPa NNW 3.2 km/h 9.7 km/h 72% 0.0 mm 643 W/m2
15:25 22.3 °C 17.4 °C 1017.8 hPa NNW 3.2 km/h 9.7 km/h 74% 0.0 mm 640 W/m2
15:30 22.7 °C 17.6 °C 1017.8 hPa NNW 3.2 km/h 9.7 km/h 73% 0.0 mm 633 W/m2
15:35 22.6 °C 17.7 °C 1017.8 hPa NW 3.2 km/h 6.4 km/h 74% 0.0 mm 628 W/m2
15:40 22.3 °C 17.6 °C 1017.8 hPa North 3.2 km/h 6.4 km/h 75% 0.0 mm 619 W/m2
15:45 22.3 °C 17.6 °C 1017.8 hPa ENE 1.6 km/h 6.4 km/h 75% 0.0 mm 610 W/m2
15:50 22.3 °C 17.9 °C 1017.8 hPa ENE 1.6 km/h 4.8 km/h 76% 0.0 mm 601 W/m2
15:55 22.4 °C 17.5 °C 1017.8 hPa East 1.6 km/h 6.4 km/h 74% 0.0 mm 592 W/m2
16:00 22.6 °C 17.7 °C 1017.7 hPa South 3.2 km/h 6.4 km/h 74% 0.0 mm 585 W/m2
16:05 22.6 °C 17.7 °C 1017.8 hPa SE 3.2 km/h 9.7 km/h 74% 0.0 mm 575 W/m2
16:10 22.1 °C 17.6 °C 1017.8 hPa ESE 3.2 km/h 9.7 km/h 76% 0.0 mm 568 W/m2
16:15 21.8 °C 17.6 °C 1017.9 hPa SE 3.2 km/h 6.4 km/h 77% 0.0 mm 555 W/m2
16:20 22.1 °C 17.8 °C 1017.9 hPa SE 3.2 km/h 6.4 km/h 77% 0.0 mm 543 W/m2
16:25 21.9 °C 17.7 °C 1017.9 hPa SE 3.2 km/h 8 km/h 77% 0.0 mm 531 W/m2
16:30 21.8 °C 17.6 °C 1017.9 hPa ESE 3.2 km/h 8 km/h 77% 0.0 mm 522 W/m2
16:35 21.9 °C 17.9 °C 1018.0 hPa East 1.6 km/h 6.4 km/h 78% 0.0 mm 504 W/m2
16:40 22.1 °C 17.8 °C 1018.0 hPa NW 1.6 km/h 6.4 km/h 77% 0.0 mm 489 W/m2
16:45 21.9 °C 17.7 °C 1018.0 hPa SSW 1.6 km/h 4.8 km/h 77% 0.0 mm 478 W/m2
16:50 22.1 °C 17.9 °C 1018.0 hPa SE 1.6 km/h 4.8 km/h 77% 0.0 mm 466 W/m2
16:55 21.8 °C 17.6 °C 1018.1 hPa South 1.6 km/h 4.8 km/h 77% 0.0 mm 452 W/m2
17:00 21.9 °C 17.7 °C 1018.1 hPa SSE 1.6 km/h 4.8 km/h 77% 0.0 mm 438 W/m2
17:05 21.6 °C 17.6 °C 1018.1 hPa SSE 1.6 km/h 3.2 km/h 78% 0.0 mm 429 W/m2
17:10 21.2 °C 17.2 °C 1018.2 hPa West 1.6 km/h 6.4 km/h 78% 0.0 mm 413 W/m2
17:15 20.9 °C 17.6 °C 1018.1 hPa NNW 3.2 km/h 6.4 km/h 81% 0.0 mm 399 W/m2
17:20 21.5 °C 17.5 °C 1018.1 hPa NE 1.6 km/h 6.4 km/h 78% 0.0 mm 385 W/m2
17:25 21.3 °C 17.3 °C 1018.1 hPa SE 1.6 km/h 4.8 km/h 78% 0.0 mm 373 W/m2
17:30 20.7 °C 17.2 °C 1018.0 hPa SE 3.2 km/h 4.8 km/h 80% 0.0 mm 353 W/m2
17:35 20.8 °C 17.3 °C 1018.0 hPa SE 1.6 km/h 4.8 km/h 80% 0.0 mm 336 W/m2
17:40 20.4 °C 17 °C 1018.0 hPa SE 1.6 km/h 4.8 km/h 81% 0.0 mm 322 W/m2
17:45 20.1 °C 16.9 °C 1018.0 hPa SE 1.6 km/h 6.4 km/h 82% 0.0 mm 301 W/m2
17:50 19.8 °C 16.8 °C 1018.0 hPa SSE 3.2 km/h 9.7 km/h 83% 0.0 mm 281 W/m2
17:55 19.4 °C 16.4 °C 1018.0 hPa South 3.2 km/h 9.7 km/h 83% 0.0 mm 264 W/m2
18:00 19.2 °C 16.6 °C 1018.0 hPa SSE 3.2 km/h 8 km/h 85% 0.0 mm 239 W/m2
18:05 19.1 °C 16.6 °C 1018.0 hPa SE 3.2 km/h 8 km/h 85% 0.0 mm 229 W/m2
18:10 19.2 °C 16.6 °C 1018.0 hPa SE 1.6 km/h 6.4 km/h 85% 0.0 mm 209 W/m2
18:15 19.2 °C 16.6 °C 1018.0 hPa SE 1.6 km/h 6.4 km/h 85% 0.0 mm 179 W/m2
18:20 19.1 °C 16.5 °C 1017.9 hPa SE 1.6 km/h 4.8 km/h 85% 0.0 mm 171 W/m2
18:25 18.6 °C 16.2 °C 1018.0 hPa SE 1.6 km/h 3.2 km/h 86% 0.0 mm 156 W/m2
18:30 18.4 °C 16.2 °C 1018.0 hPa SSE 1.6 km/h 6.4 km/h 87% 0.0 mm 139 W/m2
18:35 18.3 °C 16.1 °C 1018.0 hPa SSE 1.6 km/h 6.4 km/h 87% 0.0 mm 83 W/m2
18:40 18.3 °C 16.3 °C 1018.1 hPa SSE 3.2 km/h 6.4 km/h 88% 0.0 mm 70 W/m2
18:45 18.3 °C 16.3 °C 1018.1 hPa SSE 3.2 km/h 6.4 km/h 88% 0.0 mm 63 W/m2
18:50 18.2 °C 16.2 °C 1018.2 hPa SSE 1.6 km/h 6.4 km/h 88% 0.0 mm 62 W/m2
18:55 18.2 °C 16.2 °C 1018.2 hPa SSE 1.6 km/h 3.2 km/h 88% 0.0 mm 51 W/m2
19:00 17.9 °C 15.9 °C 1018.3 hPa SSE 1.6 km/h 3.2 km/h 88% 0.0 mm 44 W/m2
19:05 17.8 °C 15.8 °C 1018.3 hPa SSE 1.6 km/h 3.2 km/h 88% 0.0 mm 39 W/m2
19:10 17.7 °C 15.9 °C 1018.3 hPa Calm   3.2 km/h 89% 0.0 mm 33 W/m2
19:15 17.6 °C 15.8 °C 1018.4 hPa Calm   1.6 km/h 89% 0.0 mm 26 W/m2
19:20 17.7 °C 15.9 °C 1018.5 hPa Calm     89% 0.0 mm 21 W/m2
19:25 17.8 °C 15.9 °C 1018.6 hPa Calm   8 km/h 89% 0.0 mm 18 W/m2
19:30 17.7 °C 15.8 °C 1018.6 hPa WNW 1.6 km/h 8 km/h 89% 0.0 mm 12 W/m2
19:35 17.4 °C 15.6 °C 1018.7 hPa NW 3.2 km/h 9.7 km/h 89% 0.0 mm 9 W/m2
19:40 17.6 °C 15.8 °C 1018.7 hPa NNW 3.2 km/h 9.7 km/h 89% 0.0 mm 5 W/m2
19:45 17.5 °C 15.7 °C 1018.6 hPa Calm   3.2 km/h 89% 0.0 mm 0 W/m2
19:50 17.3 °C 15.5 °C 1018.6 hPa Calm   3.2 km/h 89% 0.0 mm 0 W/m2
19:55 17.5 °C 15.8 °C 1018.8 hPa Calm   1.6 km/h 90% 0.0 mm 0 W/m2
20:00 17.3 °C 15.5 °C 1018.8 hPa Calm   1.6 km/h 89% 0.0 mm 0 W/m2
20:05 17.4 °C 15.7 °C 1018.8 hPa Calm   3.2 km/h 90% 0.0 mm 0 W/m2
20:10 17.2 °C 15.4 °C 1018.8 hPa NW 1.6 km/h 3.2 km/h 89% 0.0 mm 0 W/m2
20:15 17.2 °C 15.5 °C 1018.9 hPa Calm   3.2 km/h 90% 0.0 mm 0 W/m2
20:20 17.2 °C 15.5 °C 1018.9 hPa Calm   1.6 km/h 90% 0.0 mm 0 W/m2
20:25 17.1 °C 15.4 °C 1019.0 hPa Calm   1.6 km/h 90% 0.0 mm 0 W/m2
20:30 17.2 °C 15.6 °C 1019.0 hPa Calm   3.2 km/h 90% 0.0 mm 0 W/m2
20:35 17.3 °C 15.6 °C 1019.0 hPa Calm   4.8 km/h 90% 0.0 mm 0 W/m2
20:40 17.1 °C 15.4 °C 1019.0 hPa WNW 1.6 km/h 4.8 km/h 90% 0.0 mm 0 W/m2
20:45 17.1 °C 15.4 °C 1019.0 hPa NW 1.6 km/h 4.8 km/h 90% 0.0 mm 0 W/m2
20:50 17.2 °C 15.5 °C 1019.0 hPa NW 1.6 km/h 3.2 km/h 90% 0.0 mm 0 W/m2
20:55 17.2 °C 15.6 °C 1019.0 hPa Calm   3.2 km/h 90% 0.0 mm 0 W/m2
21:00 17.1 °C 15.4 °C 1019.1 hPa NE 1.6 km/h 3.2 km/h 90% 0.0 mm 0 W/m2
21:05 17.1 °C 15.4 °C 1019.2 hPa Calm   3.2 km/h 90% 0.0 mm 0 W/m2
21:10 17.1 °C 15.4 °C 1019.2 hPa Calm   4.8 km/h 90% 0.0 mm 0 W/m2
21:15 16.9 °C 15.3 °C 1019.2 hPa SSE 1.6 km/h 4.8 km/h 90% 0.0 mm 0 W/m2
21:20 17 °C 15.3 °C 1019.2 hPa South 1.6 km/h 3.2 km/h 90% 0.0 mm 0 W/m2
21:25 16.9 °C 15.3 °C 1019.3 hPa SSE 1.6 km/h 4.8 km/h 90% 0.0 mm 0 W/m2
21:30 17 °C 15.3 °C 1019.4 hPa SSE 1.6 km/h 4.8 km/h 90% 0.0 mm 0 W/m2
21:35 17 °C 15.3 °C 1019.4 hPa SSE 1.6 km/h 4.8 km/h 90% 0.0 mm 0 W/m2
21:40 16.9 °C 15.2 °C 1019.5 hPa SSE 1.6 km/h 4.8 km/h 90% 0.0 mm 0 W/m2
21:45 16.8 °C 15.2 °C 1019.6 hPa SSE 1.6 km/h 4.8 km/h 90% 0.0 mm 0 W/m2
21:50 17 °C 15.5 °C 1019.6 hPa SSE 1.6 km/h 3.2 km/h 91% 0.0 mm 0 W/m2
21:55 16.8 °C 15.3 °C 1019.6 hPa SSE 1.6 km/h 3.2 km/h 91% 0.0 mm 0 W/m2
22:00 16.8 °C 15.3 °C 1019.7 hPa SSE 1.6 km/h 4.8 km/h 91% 0.0 mm 0 W/m2
22:05 17 °C 15.5 °C 1019.8 hPa Calm   4.8 km/h 91% 0.0 mm 0 W/m2
22:10 16.8 °C 15.3 °C 1019.8 hPa Calm   3.2 km/h 91% 0.0 mm 0 W/m2
22:15 17 °C 15.5 °C 1019.8 hPa SSE 1.6 km/h 3.2 km/h 91% 0.0 mm 0 W/m2
22:20 17.1 °C 15.6 °C 1019.9 hPa Calm   3.2 km/h 91% 0.0 mm 0 W/m2
22:25 16.9 °C 15.4 °C 1019.8 hPa Calm   3.2 km/h 91% 0.0 mm 0 W/m2
22:30 16.9 °C 15.4 °C 1019.8 hPa Calm   3.2 km/h 91% 0.0 mm 0 W/m2
22:35 16.9 °C 15.4 °C 1019.8 hPa Calm   3.2 km/h 91% 0.0 mm 0 W/m2
22:40 16.8 °C 15.3 °C 1019.7 hPa Calm   3.2 km/h 91% 0.0 mm 0 W/m2
22:45 16.8 °C 15.3 °C 1019.7 hPa SSE 1.6 km/h 3.2 km/h 91% 0.0 mm 0 W/m2
22:50 16.8 °C 15.3 °C 1019.6 hPa SSE 1.6 km/h 3.2 km/h 91% 0.0 mm 0 W/m2
22:55 16.9 °C 15.4 °C 1019.6 hPa SSE 1.6 km/h 3.2 km/h 91% 0.0 mm 0 W/m2
23:00 17 °C 15.5 °C 1019.6 hPa Calm   1.6 km/h 91% 0.0 mm 0 W/m2
23:05 17 °C 15.5 °C 1019.6 hPa Calm   3.2 km/h 91% 0.0 mm 0 W/m2
23:10 17 °C 15.5 °C 1019.5 hPa Calm   3.2 km/h 91% 0.0 mm 0 W/m2
23:15 17 °C 15.5 °C 1019.5 hPa Calm   1.6 km/h 91% 0.0 mm 0 W/m2
23:20 17 °C 15.5 °C 1019.5 hPa Calm   1.6 km/h 91% 0.0 mm 0 W/m2
23:25 17.1 °C 15.6 °C 1019.5 hPa Calm   3.2 km/h 91% 0.0 mm 0 W/m2
23:30 17 °C 15.5 °C 1019.6 hPa Calm   4.8 km/h 91% 0.0 mm 0 W/m2
23:35 17 °C 15.5 °C 1019.5 hPa SSE 1.6 km/h 4.8 km/h 91% 0.0 mm 0 W/m2
23:40 17 °C 15.5 °C 1019.5 hPa SSE 1.6 km/h 3.2 km/h 91% 0.0 mm 0 W/m2
23:45 16.9 °C 15.4 °C 1019.6 hPa Calm   3.2 km/h 91% 0.0 mm 0 W/m2
23:50 16.9 °C 15.4 °C 1019.5 hPa South 1.6 km/h 4.8 km/h 91% 0.0 mm 0 W/m2
23:55 16.9 °C 15.4 °C 1019.5 hPa South 1.6 km/h 4.8 km/h 91% 0.0 mm 0 W/m2
San Sebastian - Arriola Weather
Compliments of Weather Underground - 1.5 mb